Relevés horaires Chievres (Belgique)


Relevés horaires à Chievres - Lundi 19 Juin 2017
Heure UTC1 Température [°C] Vent [km/h] Hum. [%] Pres.4 [hPa] Visi. [Km] Nébu. [octa] Préc.5 [mm] Cond.
2m. Res. Ros. Dir.2 Vit. Moy. Raf.3
23:00 20.2 20.2 15.0 NNO 1.9 -- 3.7 72 1017.2(0.2/3h) 9 -- -- --
22:00 21.3 21.3 15.1 NNO 1.9 -- 7.4 68 1017.2(0.6/3h) 20 -- -- --
21:00 21.0 21.0 14.1 N 5.6 -- 5.6 65 1017.2(0.5/3h) 6 -- -- --
20:00 24.5 24.5 13.3 NNO 3.7 -- 5.6 50 1016.7(0.1/3h) 20 -- -- --
19:00 26.3 26.3 15.0 NNO 3.7 -- 5.6 50 1016.5(-0.4/3h) 20 -- -- --
18:00 28.2 28.2 14.5 N 3.7 -- 9.3 43 1016.5(-0.7/3h) 20 -- -- --
17:00 29.3 29.3 11.9 NNE 5.6 -- 9.3 34 1016.5(-1.1/3h) 20 -- -- --
16:00 30.4 30.4 11.1 NNO 1.9 -- 9.3 30 1016.8(-1.1/3h) 20 -- -- --
15:00 30.6 30.6 11.1 ENE 5.6 -- 9.3 30 1017.2(-1.4/3h) 20 -- -- --
14:00 30.3 30.3 10.6 NNO 1.9 -- 7.4 30 1017.7(-1.4/3h) 17 -- -- --
13:00 30.1 30.1 9.1 NNO 3.7 -- 9.3 27 1018(-1.3/3h) 20 -- -- --
12:00 29.1 29.1 11.2 NNO 1.9 -- 11.1 33 1018.7(-1.0/3h) 20 -- -- --
11:00 28.6 28.6 11.6 E 5.6 -- 11.1 35 1019.2(-0.8/3h) 20 -- -- --
10:00 27.6 27.6 10.1 ENE 5.6 -- 11.1 33 1019.5(-1.0/3h) 20 -- -- --
09:00 26.7 26.7 11.6 E 3.7 -- 7.4 39 1019.7(-0.7/3h) 20 -- -- --
08:00 25.2 25.2 12.2 NNO 1.9 -- 5.6 44 1020.2(-0.3/3h) 20 -- -- --
07:00 23.0 23.0 14.1 NNO 1.9 -- 3.7 57 1020.6(0.0/3h) 20 -- -- --
06:00 20.2 20.2 14.3 NNO 1.9 -- 3.7 69 1020.7(-0.1/3h) 17 -- -- --
05:00 17.1 17.1 13.5 NNO 1.9 -- 1.9 79 1020.7(-0.2/3h) 10 -- -- --
04:00 14.6 14.6 12.8 NNO 1.9 -- 1.9 89 1020.8(-0.3/3h) 8 -- -- --
03:00 15.2 15.2 12.8 NNO 1.9 -- 3.7 86 1020.8(-0.5/3h) 9 -- -- --
02:00 15.4 15.4 12.6 NNO 1.9 -- 3.7 83 1021.1(-0.6/3h) 12 -- -- --
01:00 15.8 15.8 13.1 NNO 1.9 -- 3.7 84 1021.2(-0.6/3h) 10 -- -- --
00:00 17.5 17.5 13.4 NNO 1.9 -- 9.3 77 1021.5(-0.3/3h) 14 -- -- --

1 Coordinated Universal Time. Actuellement il est 09:00 locale et 07:00 UTC.

2 Le vent souffle depuis la direction indiquée vers la direction oposée.

3 Les rafales max. sont disponible 40 min après l'heure du relevé.

4 Pour les stations d'altitude (plus de 600m) le géopotentiel du niveau le plus proche de la pression obligatoire est indiqué.

5 Les stations disposant d'un diffuseur peuvent indiquer "trace". Cela signifie que des précipitations ont touchés le sol mais que la quantité est inférieure à 0.1 mm.

Récapitulatif de la journée
Température [°C] Vent [km/h] Ensoleillement4 [h] Precipitations totale5 [mm] Pression [Hpa]
Min1 Max.2 Moy.3 Max. Min Max.
14.1 31.1 0 11.1 0 h 0 min 0 1016.5 1021.5

1 Température minimale relevée entre 18:00 UTC la veille et 18:00 UTC le jour donné.

2 Température maximale relevée entre 06:00 UTC le jour donné et 06:00 UTC le lendemain.

3 Vent moyen de la journée basé sur les relevés horaires.

4 Ensoleillement en heures relevé entre 06:00 UTC la veille et 06:00 UTC le jour donné.

5 Précipitations totales tombées entre 06:00 UTC la jour donné et 06:00 UTC le lendemain.

Graphiques horaires